Time;durP1;ratioP1;P1;durP2;ratioP2;P2;SDS_P1;SDS_P2;PMS_P1;PMS_P2;Temp;Humidity;BMP_temperature;BMP_pressure;BME280_temperature;BME280_humidity;BME280_pressure;Samples;Min_cycle;Max_cycle;Signal;HPM_P1;HPM_P2
2021/03/08 00:00:53;;;;;;;4.53;1.50;;;2.40;99.90;;;;;;4928354;29;20557;-77
2021/03/08 00:03:19;;;;;;;4.65;1.50;;;2.40;99.90;;;;;;4912028;29;20060;-79
2021/03/08 00:05:45;;;;;;;13.10;1.65;;;2.40;99.90;;;;;;4911973;29;20449;-78
2021/03/08 00:08:12;;;;;;;5.55;1.73;;;2.40;99.90;;;;;;4917916;29;20032;-78
2021/03/08 00:10:38;;;;;;;14.40;2.42;;;2.40;99.90;;;;;;4929452;29;20095;-78
2021/03/08 00:13:04;;;;;;;5.80;0.93;;;2.40;99.90;;;;;;4929652;29;20032;-78
2021/03/08 00:15:30;;;;;;;1.70;1.10;;;2.30;99.90;;;;;;4930829;29;20051;-77
2021/03/08 00:17:55;;;;;;;20.67;1.92;;;2.30;99.90;;;;;;4929683;29;20063;-77
2021/03/08 00:20:24;;;;;;;7.53;1.15;;;2.30;99.90;;;;;;4929367;29;20032;-77
2021/03/08 00:22:49;;;;;;;11.60;1.80;;;2.30;99.90;;;;;;4930878;29;20056;-79
2021/03/08 00:25:19;;;;;;;4.38;0.70;;;2.20;99.90;;;;;;4929554;29;20024;-76
2021/03/08 00:27:45;;;;;;;1.10;0.65;;;2.20;99.90;;;;;;4929208;29;20032;-76
2021/03/08 00:30:11;;;;;;;10.32;1.95;;;2.20;99.90;;;;;;4912307;29;20064;-79
2021/03/08 00:32:36;;;;;;;5.72;1.70;;;2.10;99.90;;;;;;4910574;29;20028;-77
2021/03/08 00:35:04;;;;;;;2.15;1.20;;;2.00;99.90;;;;;;4911690;29;20056;-77
2021/03/08 00:37:31;;;;;;;6.57;1.65;;;2.00;99.90;;;;;;4911701;29;20119;-78
2021/03/08 00:40:01;;;;;;;8.32;1.55;;;1.90;99.90;;;;;;4925985;29;20034;-77
2021/03/08 00:42:27;;;;;;;17.10;2.25;;;1.80;99.90;;;;;;4911730;29;20051;-77
2021/03/08 00:44:54;;;;;;;4.10;2.33;;;1.80;99.90;;;;;;4911832;29;20064;-78
2021/03/08 00:47:20;;;;;;;2.85;1.20;;;1.70;99.90;;;;;;4910077;29;20040;-77
2021/03/08 00:49:47;;;;;;;5.90;2.30;;;1.70;99.90;;;;;;4910003;29;20033;-76
2021/03/08 00:52:12;;;;;;;3.78;1.25;;;1.70;99.90;;;;;;4911236;29;20064;-76
2021/03/08 00:54:38;;;;;;;25.90;2.55;;;1.70;99.90;;;;;;4930089;29;20036;-77
2021/03/08 00:57:03;;;;;;;1.83;0.85;;;1.60;99.90;;;;;;4930031;29;20381;-78
2021/03/08 00:59:29;;;;;;;5.13;1.65;;;1.60;99.90;;;;;;4930190;29;20039;-77
2021/03/08 01:01:55;;;;;;;11.35;1.13;;;1.60;99.90;;;;;;4928726;29;20059;-76
2021/03/08 01:04:20;;;;;;;5.38;1.95;;;1.60;99.90;;;;;;4928453;29;20056;-78
2021/03/08 01:06:46;;;;;;;16.40;2.15;;;1.50;99.90;;;;;;4928629;29;20029;-77
2021/03/08 01:09:11;;;;;;;9.50;2.05;;;1.50;99.90;;;;;;4927930;29;20036;-76
2021/03/08 01:11:37;;;;;;;5.57;2.28;;;1.60;99.90;;;;;;4929862;29;20036;-77
2021/03/08 01:14:03;;;;;;;3.90;1.73;;;1.60;99.90;;;;;;4928536;29;20032;-77
2021/03/08 01:16:28;;;;;;;2.72;1.23;;;1.50;99.90;;;;;;4929651;29;20051;-77
2021/03/08 01:18:54;;;;;;;14.38;1.83;;;1.60;99.90;;;;;;4928620;29;20043;-77
2021/03/08 01:21:20;;;;;;;5.18;1.45;;;1.50;99.90;;;;;;4912462;29;20413;-77
2021/03/08 01:23:46;;;;;;;3.70;2.53;;;1.60;99.90;;;;;;4910630;29;20449;-76
2021/03/08 01:26:11;;;;;;;11.10;1.27;;;1.60;99.90;;;;;;4909162;29;20028;-77
2021/03/08 01:28:37;;;;;;;2.00;1.08;;;1.60;99.90;;;;;;4910526;29;20032;-77
2021/03/08 01:31:03;;;;;;;2.95;1.25;;;1.50;99.90;;;;;;4909343;29;20043;-77
2021/03/08 01:33:28;;;;;;;3.35;0.82;;;1.50;99.90;;;;;;4910544;29;20029;-79
2021/03/08 01:35:54;;;;;;;5.68;1.60;;;1.50;99.90;;;;;;4909085;29;20028;-77
2021/03/08 01:38:20;;;;;;;4.20;1.80;;;1.40;99.90;;;;;;4909254;29;20036;-78
2021/03/08 01:40:45;;;;;;;7.22;1.65;;;1.40;99.90;;;;;;4910371;29;20052;-77
2021/03/08 01:43:11;;;;;;;10.05;2.50;;;1.40;99.90;;;;;;4908871;29;20047;-77
2021/03/08 01:45:37;;;;;;;2.33;0.95;;;1.40;99.90;;;;;;4910238;29;20025;-77
2021/03/08 01:48:03;;;;;;;9.45;1.85;;;1.40;99.90;;;;;;4908794;29;20035;-77
2021/03/08 01:50:39;;;;;;;4.32;1.17;;;1.40;99.90;;;;;;4909290;29;20032;-76
2021/03/08 01:53:08;;;;;;;2.25;1.33;;;1.40;99.90;;;;;;4910044;29;20035;-76
2021/03/08 01:55:34;;;;;;;3.90;1.40;;;1.50;99.90;;;;;;4910145;29;20044;-78
2021/03/08 01:58:01;;;;;;;8.52;1.67;;;1.50;99.90;;;;;;4909997;29;20053;-77
2021/03/08 02:00:28;;;;;;;10.75;1.67;;;1.60;99.90;;;;;;4910011;29;20033;-77
2021/03/08 02:02:54;;;;;;;3.75;1.30;;;1.60;99.90;;;;;;4908442;29;20104;-76
2021/03/08 02:05:24;;;;;;;11.55;1.33;;;1.70;99.90;;;;;;4909937;29;20061;-75
2021/03/08 02:07:50;;;;;;;4.10;1.02;;;1.60;99.90;;;;;;4910090;29;20040;-77
2021/03/08 02:10:17;;;;;;;0.63;0.52;;;1.70;99.90;;;;;;4908424;29;20032;-76
2021/03/08 02:12:49;;;;;;;10.05;1.33;;;1.70;99.90;;;;;;4909834;29;20115;-77
2021/03/08 02:15:33;;;;;;;5.82;1.15;;;1.70;99.90;;;;;;4908236;29;20085;-76
2021/03/08 02:18:13;;;;;;;;;;;1.80;99.90;;;;;;4908904;29;20210;-77
2021/03/08 02:20:56;;;;;;;7.32;0.82;;;1.80;99.90;;;;;;4908981;29;19911;-76
2021/03/08 02:23:21;;;;;;;8.98;1.20;;;1.80;99.90;;;;;;4909781;29;20041;-75
2021/03/08 02:26:10;;;;;;;5.97;1.08;;;1.80;99.90;;;;;;4909584;29;20051;-77
2021/03/08 02:28:44;;;;;;;6.93;1.80;;;1.70;99.90;;;;;;4925952;29;20045;-77
2021/03/08 02:31:12;;;;;;;3.40;0.82;;;1.70;99.90;;;;;;4908187;29;20033;-77
2021/03/08 02:33:43;;;;;;;1.92;1.13;;;1.70;99.90;;;;;;4908277;29;20068;-77
2021/03/08 02:36:09;;;;;;;3.83;1.30;;;1.60;99.90;;;;;;4909445;29;20045;-77
2021/03/08 02:38:51;;;;;;;2.85;1.40;;;1.60;99.90;;;;;;4907959;29;20028;-78
2021/03/08 02:41:19;;;;;;;14.15;1.75;;;1.60;99.90;;;;;;4909382;29;20736;-79
2021/03/08 02:43:46;;;;;;;3.08;1.27;;;1.70;99.90;;;;;;4908248;29;20069;-79
2021/03/08 02:46:27;;;;;;;3.67;1.67;;;1.70;99.90;;;;;;4909292;29;20025;-78
2021/03/08 02:48:55;;;;;;;2.25;1.05;;;1.70;99.90;;;;;;4908402;29;20025;-77
2021/03/08 02:51:22;;;;;;;5.95;1.63;;;1.70;99.90;;;;;;4909495;29;20035;-79
2021/03/08 02:53:50;;;;;;;2.90;1.63;;;1.70;99.90;;;;;;4907929;29;20033;-77
2021/03/08 02:56:19;;;;;;;5.75;1.00;;;1.60;99.90;;;;;;4909199;29;20056;-79
2021/03/08 02:58:48;;;;;;;2.47;1.25;;;1.60;99.90;;;;;;4909244;29;20032;-78
2021/03/08 03:01:16;;;;;;;5.88;1.73;;;1.60;99.90;;;;;;4907755;29;20361;-80
2021/03/08 03:03:45;;;;;;;5.00;1.17;;;1.60;99.90;;;;;;4908853;29;20052;-80
2021/03/08 03:06:12;;;;;;;1.63;1.10;;;1.60;99.90;;;;;;4907787;29;20045;-77
2021/03/08 03:08:39;;;;;;;8.55;0.80;;;1.50;99.90;;;;;;4907942;29;20057;-78
2021/03/08 03:11:07;;;;;;;11.68;1.25;;;1.50;99.90;;;;;;4908911;29;20033;-77
2021/03/08 03:13:34;;;;;;;5.50;1.90;;;1.50;99.90;;;;;;4909080;29;20040;-77
2021/03/08 03:16:00;;;;;;;31.17;3.22;;;1.50;99.90;;;;;;4907917;29;20524;-78
2021/03/08 03:18:29;;;;;;;4.45;1.10;;;1.40;99.90;;;;;;4907969;29;20025;-78
2021/03/08 03:20:56;;;;;;;3.10;1.05;;;1.30;99.90;;;;;;4908014;29;20450;-77
2021/03/08 03:23:24;;;;;;;30.02;2.88;;;1.30;99.90;;;;;;4909167;29;20032;-76
2021/03/08 03:25:50;;;;;;;6.88;1.63;;;1.20;99.90;;;;;;4909036;29;20053;-78
2021/03/08 03:28:17;;;;;;;3.95;1.77;;;1.20;99.90;;;;;;4907964;29;20138;-79
2021/03/08 03:30:44;;;;;;;3.10;0.77;;;1.10;99.90;;;;;;4907575;29;20029;-78
2021/03/08 03:33:11;;;;;;;10.80;2.03;;;1.10;99.90;;;;;;4910983;29;20028;-78
2021/03/08 03:35:37;;;;;;;7.90;1.20;;;1.00;99.90;;;;;;4912563;29;20029;-78
2021/03/08 03:38:04;;;;;;;6.90;1.98;;;1.00;99.90;;;;;;4911164;29;20123;-77
2021/03/08 03:40:31;;;;;;;3.20;1.15;;;1.00;99.90;;;;;;4911072;29;20064;-77
2021/03/08 03:42:56;;;;;;;2.00;1.05;;;0.90;99.90;;;;;;4911183;29;20501;-77
2021/03/08 03:45:24;;;;;;;6.40;1.67;;;0.90;99.90;;;;;;4912530;29;20045;-78
2021/03/08 03:47:50;;;;;;;3.38;1.05;;;0.80;99.90;;;;;;4912702;29;20032;-77
2021/03/08 03:50:21;;;;;;;2.10;0.80;;;0.80;99.90;;;;;;4912213;29;20037;-76
2021/03/08 03:52:47;;;;;;;2.72;1.27;;;0.80;99.90;;;;;;4910946;29;20043;-77
2021/03/08 03:55:16;;;;;;;2.45;1.40;;;0.80;99.90;;;;;;4912159;29;20028;-78
2021/03/08 03:58:19;;;;;;;2.85;1.20;;;0.80;99.90;;;;;;4912075;29;20036;-77
2021/03/08 04:01:10;;;;;;;11.50;1.90;;;0.70;99.90;;;;;;4912576;29;20065;-79
2021/03/08 04:03:47;;;;;;;3.25;1.48;;;0.70;99.90;;;;;;4912068;29;20104;-77
2021/03/08 04:06:14;;;;;;;1.48;0.75;;;0.70;99.90;;;;;;4910775;29;20041;-78
2021/03/08 04:08:45;;;;;;;5.28;1.17;;;0.70;99.90;;;;;;4911820;29;20043;-78
2021/03/08 04:11:12;;;;;;;2.03;0.95;;;0.70;99.90;;;;;;4910654;29;20037;-79
2021/03/08 04:13:38;;;;;;;1.45;0.95;;;0.70;99.90;;;;;;4911963;29;20115;-80
2021/03/08 04:16:07;;;;;;;12.32;1.73;;;0.60;99.90;;;;;;4912113;29;20043;-78
2021/03/08 04:18:33;;;;;;;2.15;0.90;;;0.60;99.90;;;;;;4911770;29;20494;-78
2021/03/08 04:21:00;;;;;;;3.38;2.15;;;0.60;99.90;;;;;;4910597;29;20178;-79
2021/03/08 04:23:28;;;;;;;10.93;1.95;;;0.60;99.90;;;;;;4912017;29;20024;-80
2021/03/08 04:25:54;;;;;;;3.58;1.27;;;0.60;99.90;;;;;;4910456;29;20085;-79
2021/03/08 04:28:21;;;;;;;21.13;1.50;;;0.60;99.90;;;;;;4911761;29;20732;-80
2021/03/08 04:30:47;;;;;;;3.90;1.27;;;0.60;99.90;;;;;;4910202;29;20043;-78
2021/03/08 04:33:15;;;;;;;4.68;1.45;;;0.50;99.90;;;;;;4910221;29;20040;-78
2021/03/08 04:35:43;;;;;;;10.80;2.20;;;0.50;99.90;;;;;;4910235;29;20028;-78
2021/03/08 04:38:10;;;;;;;9.60;1.52;;;0.50;99.90;;;;;;4910388;29;20514;-78
2021/03/08 04:40:36;;;;;;;1.10;0.85;;;0.50;99.90;;;;;;4911573;29;20397;-77
2021/03/08 04:43:06;;;;;;;8.40;1.85;;;0.50;99.90;;;;;;4909097;29;20104;-77
2021/03/08 04:45:33;;;;;;;8.65;1.35;;;0.50;99.90;;;;;;4911453;29;20028;-78
2021/03/08 04:48:01;;;;;;;7.10;1.58;;;0.40;99.90;;;;;;4909894;29;20040;-78
2021/03/08 04:50:28;;;;;;;4.80;1.38;;;0.40;99.90;;;;;;4910186;29;20033;-77
2021/03/08 04:52:54;;;;;;;3.00;0.82;;;0.40;99.90;;;;;;4910185;29;20044;-77
2021/03/08 04:55:24;;;;;;;4.97;1.48;;;0.40;99.90;;;;;;4911260;29;20624;-77
2021/03/08 04:57:50;;;;;;;2.38;1.27;;;0.40;99.90;;;;;;4925474;29;20033;-77
2021/03/08 05:00:17;;;;;;;4.57;1.73;;;0.30;99.90;;;;;;4910892;29;20382;-78
2021/03/08 05:02:44;;;;;;;2.38;1.15;;;0.30;99.90;;;;;;4910695;29;20119;-78
2021/03/08 05:05:11;;;;;;;2.03;0.90;;;0.30;99.90;;;;;;4909760;29;20039;-78
2021/03/08 05:07:45;;;;;;;2.65;1.05;;;0.30;99.90;;;;;;4910976;29;20084;-78
2021/03/08 05:10:18;;;;;;;15.73;1.90;;;0.20;99.90;;;;;;4910951;29;20448;-77
2021/03/08 05:12:45;;;;;;;10.05;1.65;;;0.20;99.90;;;;;;4910990;29;20033;-76
2021/03/08 05:15:12;;;;;;;2.75;1.23;;;0.20;99.90;;;;;;4910737;29;20036;-76
2021/03/08 05:17:39;;;;;;;1.50;1.10;;;0.20;99.90;;;;;;4909559;29;20036;-76
2021/03/08 05:20:07;;;;;;;4.22;1.80;;;0.20;99.90;;;;;;4909396;29;20089;-76
2021/03/08 05:22:35;;;;;;;1.45;0.80;;;0.20;99.90;;;;;;4909438;29;20044;-77
2021/03/08 05:25:02;;;;;;;1.65;1.13;;;0.20;99.90;;;;;;4910829;29;20036;-77
2021/03/08 05:27:29;;;;;;;7.35;2.40;;;0.10;99.90;;;;;;4910746;29;20028;-76
2021/03/08 05:29:55;;;;;;;5.95;1.52;;;0.10;99.90;;;;;;4910806;29;20060;-77
2021/03/08 05:32:29;;;;;;;7.20;1.50;;;0.10;99.90;;;;;;4909385;29;20390;-76
2021/03/08 05:34:56;;;;;;;7.05;1.83;;;0.10;99.90;;;;;;4910790;29;20105;-76
2021/03/08 05:37:22;;;;;;;11.90;1.23;;;0.10;99.90;;;;;;4909233;29;20116;-76
2021/03/08 05:39:49;;;;;;;18.73;1.50;;;0.10;99.90;;;;;;4909107;29;20099;-76
2021/03/08 05:42:17;;;;;;;13.95;1.15;;;0.00;99.90;;;;;;4909021;29;20060;-76
2021/03/08 05:45:07;;;;;;;6.57;1.45;;;0.00;99.90;;;;;;4910600;29;20028;-77
2021/03/08 05:48:11;;;;;;;2.13;1.17;;;0.00;99.90;;;;;;4909140;29;20115;-76
2021/03/08 05:50:56;;;;;;;6.60;1.33;;;0.00;99.90;;;;;;4924691;29;20032;-75
2021/03/08 05:53:58;;;;;;;1.85;0.95;;;0.00;99.90;;;;;;4910317;29;20538;-75
2021/03/08 05:56:35;;;;;;;13.85;1.80;;;-0.10;99.90;;;;;;4908880;29;20578;-76
2021/03/08 05:59:19;;;;;;;3.50;1.25;;;-0.10;99.90;;;;;;4909804;29;20036;-76
2021/03/08 06:02:03;;;;;;;5.07;1.20;;;-0.10;99.90;;;;;;4909676;29;20044;-75
2021/03/08 06:05:00;;;;;;;14.80;1.80;;;-0.10;99.90;;;;;;4909682;29;20060;-77
2021/03/08 06:08:03;;;;;;;5.43;1.17;;;-0.10;99.90;;;;;;4909951;29;20036;-76
2021/03/08 06:10:34;;;;;;;8.50;1.48;;;-0.10;99.90;;;;;;4909618;29;20422;-76
2021/03/08 06:13:08;;;;;;;6.78;1.65;;;-0.10;99.90;;;;;;4909569;29;20025;-76
2021/03/08 06:15:36;;;;;;;10.90;1.98;;;-0.10;99.90;;;;;;4909169;29;20032;-75
2021/03/08 06:18:06;;;;;;;2.75;1.17;;;-0.20;99.90;;;;;;4908173;29;20478;-76
2021/03/08 06:20:32;;;;;;;3.08;1.23;;;-0.10;99.90;;;;;;4909415;29;20032;-76
2021/03/08 06:22:59;;;;;;;2.88;1.50;;;-0.20;99.90;;;;;;4911408;29;20045;-75
2021/03/08 06:25:26;;;;;;;7.00;1.90;;;-0.20;99.90;;;;;;4911624;29;20032;-75
2021/03/08 06:27:53;;;;;;;4.20;2.05;;;-0.20;99.90;;;;;;4909466;29;20032;-75
2021/03/08 06:30:20;;;;;;;8.00;2.25;;;-0.20;99.90;;;;;;4915042;29;20051;-76
2021/03/08 06:32:46;;;;;;;2.70;1.10;;;-0.20;99.90;;;;;;4908029;29;20036;-75
2021/03/08 06:35:14;;;;;;;4.43;1.50;;;-0.20;99.90;;;;;;4917944;29;20078;-76
2021/03/08 06:37:41;;;;;;;8.88;2.03;;;-0.20;99.90;;;;;;4908921;29;20028;-74
2021/03/08 06:40:09;;;;;;;1.48;1.20;;;-0.10;99.90;;;;;;4923554;29;20029;-76
2021/03/08 06:42:35;;;;;;;3.17;1.42;;;-0.10;99.90;;;;;;4909000;29;20040;-75
2021/03/08 06:45:01;;;;;;;4.53;1.90;;;-0.10;99.90;;;;;;4923089;29;20363;-76
2021/03/08 06:47:26;;;;;;;6.40;2.25;;;-0.10;99.90;;;;;;4928376;29;20035;-76
2021/03/08 06:49:54;;;;;;;5.15;2.35;;;-0.10;99.90;;;;;;4926806;29;20032;-75
2021/03/08 06:52:22;;;;;;;3.10;1.90;;;0.00;99.90;;;;;;4927879;29;20434;-77
2021/03/08 06:55:01;;;;;;;8.85;1.95;;;0.00;99.90;;;;;;4926419;29;20112;-75
2021/03/08 06:57:35;;;;;;;5.82;1.45;;;0.00;99.90;;;;;;4915274;29;20500;-75
2021/03/08 07:00:10;;;;;;;5.75;1.05;;;0.10;99.90;;;;;;4909045;29;20024;-75
2021/03/08 07:02:40;;;;;;;1.40;0.93;;;0.10;99.90;;;;;;4908755;29;20048;-75
2021/03/08 07:05:08;;;;;;;1.65;0.98;;;0.20;99.90;;;;;;4907654;29;20379;-76
2021/03/08 07:07:56;;;;;;;1.90;1.17;;;0.30;99.90;;;;;;4917047;29;20083;-75
2021/03/08 07:10:38;;;;;;;3.00;1.30;;;0.30;99.90;;;;;;4917880;29;20358;-75
2021/03/08 07:13:15;;;;;;;6.18;1.63;;;0.40;99.90;;;;;;4929259;29;20043;-75
2021/03/08 07:16:02;;;;;;;11.32;1.60;;;0.50;99.90;;;;;;4931569;29;20024;-74
2021/03/08 07:18:29;;;;;;;4.43;1.67;;;0.60;99.90;;;;;;4928580;29;20039;-76
2021/03/08 07:21:17;;;;;;;3.90;1.45;;;0.70;99.90;;;;;;4925965;29;20046;-76
2021/03/08 07:23:46;;;;;;;1.30;0.98;;;0.70;99.90;;;;;;4950513;29;20103;-74
2021/03/08 07:26:18;;;;;;;3.20;1.42;;;0.90;99.90;;;;;;4948657;28;20103;-74
2021/03/08 07:28:43;;;;;;;4.07;1.52;;;0.90;99.90;;;;;;4950487;29;20032;-75
2021/03/08 07:31:30;;;;;;;3.13;1.40;;;1.00;99.90;;;;;;4948305;29;20038;-74
2021/03/08 07:34:03;;;;;;;2.42;1.30;;;1.10;99.90;;;;;;4949160;29;20056;-75
2021/03/08 07:36:29;;;;;;;4.13;2.00;;;1.10;99.90;;;;;;4949732;28;20377;-74
2021/03/08 07:38:56;;;;;;;1.17;0.73;;;1.20;99.90;;;;;;4950478;29;20031;-74
2021/03/08 07:41:23;;;;;;;1.83;1.67;;;1.20;99.90;;;;;;4949996;29;20368;-74
2021/03/08 07:43:51;;;;;;;2.17;1.23;;;1.30;99.90;;;;;;4950109;28;20063;-74
2021/03/08 07:46:30;;;;;;;1.35;0.90;;;1.30;99.90;;;;;;4948805;28;20058;-74
2021/03/08 07:49:02;;;;;;;5.40;1.65;;;1.50;99.90;;;;;;4950503;29;20032;-76
2021/03/08 07:51:28;;;;;;;3.67;1.50;;;1.80;99.90;;;;;;4950282;28;20024;-75
2021/03/08 07:54:08;;;;;;;6.60;1.58;;;2.10;99.90;;;;;;4950145;29;20048;-75
2021/03/08 07:56:34;;;;;;;7.28;1.23;;;2.40;99.90;;;;;;4949941;29;20046;-74
2021/03/08 07:59:00;;;;;;;1.38;1.20;;;2.60;99.90;;;;;;4948908;28;20035;-75
2021/03/08 08:01:27;;;;;;;9.43;1.05;;;2.80;99.90;;;;;;4948718;28;20075;-76
2021/03/08 08:03:53;;;;;;;3.95;1.48;;;2.90;99.90;;;;;;4950013;29;20056;-74
2021/03/08 08:06:24;;;;;;;4.70;0.82;;;3.00;99.90;;;;;;4949641;29;20032;-75
2021/03/08 08:08:54;;;;;;;1.88;0.70;;;3.10;99.90;;;;;;4949792;28;20048;-74
2021/03/08 08:11:21;;;;;;;3.65;1.48;;;3.20;99.90;;;;;;4931549;28;20039;-75
2021/03/08 08:13:52;;;;;;;3.03;1.30;;;3.30;99.90;;;;;;4927078;29;20516;-75
2021/03/08 08:16:22;;;;;;;5.03;1.30;;;3.40;99.90;;;;;;4912442;29;20028;-75
2021/03/08 08:18:52;;;;;;;1.85;0.68;;;3.60;99.90;;;;;;4910070;29;20036;-74
2021/03/08 08:21:19;;;;;;;3.45;1.48;;;3.80;99.90;;;;;;4911673;29;20466;-75
2021/03/08 08:23:47;;;;;;;1.27;0.80;;;4.00;99.90;;;;;;4911662;29;20035;-75
2021/03/08 08:26:16;;;;;;;5.35;1.15;;;4.20;99.90;;;;;;4911460;29;20497;-75
2021/03/08 08:28:46;;;;;;;2.25;0.70;;;4.40;99.90;;;;;;4911465;29;20037;-75
2021/03/08 08:31:13;;;;;;;1.25;1.15;;;4.50;99.90;;;;;;4911458;29;20033;-74
2021/03/08 08:33:39;;;;;;;2.40;1.15;;;4.70;99.90;;;;;;4909929;29;20100;-75
2021/03/08 08:36:12;;;;;;;1.85;1.00;;;4.90;99.90;;;;;;4911160;29;20028;-76
2021/03/08 08:38:40;;;;;;;3.30;1.42;;;5.20;99.90;;;;;;4911442;29;20025;-75
2021/03/08 08:41:22;;;;;;;2.15;0.80;;;5.40;99.90;;;;;;4911029;29;20506;-74
2021/03/08 08:44:08;;;;;;;0.88;0.75;;;5.50;99.90;;;;;;4911002;29;20047;-75
2021/03/08 08:46:47;;;;;;;13.63;1.17;;;5.60;99.90;;;;;;4909549;29;20043;-76
2021/03/08 08:49:15;;;;;;;5.85;0.98;;;5.70;99.90;;;;;;4910932;29;20028;-76
2021/03/08 08:51:49;;;;;;;2.53;1.33;;;5.70;99.90;;;;;;4910960;29;20036;-75
2021/03/08 08:54:27;;;;;;;2.70;1.30;;;5.80;99.90;;;;;;4907537;29;20124;-75
2021/03/08 08:57:11;;;;;;;1.67;0.75;;;5.90;99.90;;;;;;4923794;29;20107;-76
2021/03/08 08:59:37;;;;;;;;;;;5.90;99.90;;;;;;4927851;29;20520;-76
2021/03/08 09:02:17;;;;;;;1.52;0.90;;;6.10;99.90;;;;;;4929310;29;19915;-75
2021/03/08 09:04:44;;;;;;;1.20;0.80;;;6.30;99.90;;;;;;4927807;29;20497;-75
2021/03/08 09:07:23;;;;;;;1.27;0.93;;;6.40;99.90;;;;;;4927530;29;20036;-75
2021/03/08 09:09:49;;;;;;;2.63;1.27;;;6.50;99.90;;;;;;4929137;29;20036;-76
2021/03/08 09:12:37;;;;;;;2.83;0.90;;;6.70;99.90;;;;;;4929095;29;20034;-76
2021/03/08 09:15:11;;;;;;;1.83;1.23;;;6.80;99.90;;;;;;4929163;29;20486;-75
2021/03/08 09:17:48;;;;;;;3.65;1.15;;;6.90;99.90;;;;;;4927623;29;20044;-75
2021/03/08 09:20:13;;;;;;;2.53;1.08;;;6.90;99.90;;;;;;4912902;29;20032;-74
2021/03/08 09:22:47;;;;;;;5.20;1.38;;;7.00;99.90;;;;;;4926285;29;20040;-75
2021/03/08 09:25:19;;;;;;;3.20;0.90;;;7.10;99.90;;;;;;4928386;29;20036;-75
2021/03/08 09:27:50;;;;;;;1.60;0.75;;;7.30;99.90;;;;;;4927738;29;20028;-75
2021/03/08 09:30:23;;;;;;;7.82;1.33;;;7.50;99.90;;;;;;4910180;29;20065;-76
2021/03/08 09:33:05;;;;;;;4.70;0.80;;;7.70;99.90;;;;;;4910547;29;20064;-76
2021/03/08 09:35:34;;;;;;;5.07;0.73;;;7.70;99.90;;;;;;4910517;29;20354;-76
2021/03/08 09:38:05;;;;;;;2.25;1.17;;;7.70;99.90;;;;;;4909260;29;20051;-74
2021/03/08 09:40:36;;;;;;;1.60;0.73;;;7.80;99.90;;;;;;4918583;29;20036;-75
2021/03/08 09:43:15;;;;;;;1.05;0.80;;;8.00;99.90;;;;;;4924647;29;20049;-77
2021/03/08 09:45:41;;;;;;;1.30;0.90;;;8.10;99.90;;;;;;4925694;29;20036;-77
2021/03/08 09:48:06;;;;;;;3.40;1.10;;;8.20;99.90;;;;;;4927942;29;20039;-76
2021/03/08 09:50:35;;;;;;;0.93;0.43;;;8.40;99.90;;;;;;4928374;29;20036;-76
2021/03/08 09:53:01;;;;;;;4.10;1.42;;;8.50;99.90;;;;;;4928189;29;20469;-76
2021/03/08 09:55:35;;;;;;;2.42;0.95;;;8.60;99.90;;;;;;4928219;29;20208;-76
2021/03/08 09:58:18;;;;;;;3.92;0.77;;;8.60;99.90;;;;;;4928331;29;20047;-77
2021/03/08 10:00:47;;;;;;;1.60;0.75;;;8.40;99.90;;;;;;4913303;29;20044;-75
2021/03/08 10:03:12;;;;;;;1.33;0.68;;;8.40;99.90;;;;;;4921845;29;20461;-75
2021/03/08 10:05:41;;;;;;;1.45;0.52;;;8.50;99.90;;;;;;4910038;29;20044;-75
2021/03/08 10:08:07;;;;;;;1.90;0.80;;;8.60;99.90;;;;;;4908392;29;20096;-74
2021/03/08 10:10:41;;;;;;;1.45;0.75;;;8.70;99.90;;;;;;4908986;29;20116;-75
2021/03/08 10:13:08;;;;;;;4.00;1.33;;;8.90;99.90;;;;;;4911845;29;20080;-75
2021/03/08 10:15:57;;;;;;;0.70;0.52;;;9.20;99.90;;;;;;4910120;29;20056;-75
2021/03/08 10:18:29;;;;;;;6.05;0.60;;;9.30;99.90;;;;;;4920408;29;20051;-76
2021/03/08 10:20:57;;;;;;;1.52;0.75;;;9.40;99.90;;;;;;4929180;29;20029;-76
2021/03/08 10:23:32;;;;;;;2.30;0.80;;;9.50;99.90;;;;;;4924720;29;20040;-74
2021/03/08 10:26:16;;;;;;;3.17;0.65;;;9.50;99.90;;;;;;4910382;29;20117;-76
2021/03/08 10:28:47;;;;;;;1.67;0.73;;;9.70;99.90;;;;;;4910237;29;20032;-75
2021/03/08 10:31:24;;;;;;;2.05;0.90;;;9.60;99.90;;;;;;4920761;29;20036;-76
2021/03/08 10:33:54;;;;;;;1.45;0.75;;;9.70;99.90;;;;;;4921978;29;20028;-77
2021/03/08 10:36:28;;;;;;;2.75;0.68;;;9.90;99.90;;;;;;4928816;29;20122;-75
2021/03/08 10:39:01;;;;;;;2.55;1.05;;;10.00;99.90;;;;;;4928761;29;20024;-76
2021/03/08 10:41:29;;;;;;;1.35;0.50;;;10.10;99.90;;;;;;4944963;29;20044;-76
2021/03/08 10:43:56;;;;;;;2.08;0.60;;;10.20;99.90;;;;;;4921592;29;20056;-76
2021/03/08 10:46:31;;;;;;;0.82;0.45;;;10.20;99.90;;;;;;4915429;29;20043;-77
2021/03/08 10:49:03;;;;;;;0.47;0.40;;;10.50;99.90;;;;;;4917112;29;20028;-76
2021/03/08 10:51:32;;;;;;;2.58;0.60;;;10.70;99.90;;;;;;4914631;29;20512;-76
2021/03/08 10:54:04;;;;;;;1.30;0.70;;;11.00;99.90;;;;;;4921869;29;20020;-75
2021/03/08 10:56:31;;;;;;;3.67;0.90;;;11.30;99.90;;;;;;4927642;29;20016;-77
2021/03/08 10:58:59;;;;;;;0.70;0.40;;;11.50;99.90;;;;;;4923434;29;20114;-75
2021/03/08 11:01:28;;;;;;;0.85;0.50;;;11.70;99.90;;;;;;4908529;29;20040;-76
2021/03/08 11:03:54;;;;;;;0.93;0.32;;;12.00;99.90;;;;;;4910065;29;20421;-76
2021/03/08 11:06:21;;;;;;;0.30;0.20;;;12.20;99.90;;;;;;4917125;29;20033;-75
2021/03/08 11:09:05;;;;;;;1.13;0.52;;;12.30;98.00;;;;;;4907558;29;20115;-76
2021/03/08 11:11:33;;;;;;;1.50;0.50;;;12.30;96.40;;;;;;4907636;29;20098;-77
2021/03/08 11:14:05;;;;;;;2.67;0.45;;;12.40;99.40;;;;;;4907891;29;20063;-78
2021/03/08 11:16:35;;;;;;;3.92;1.00;;;12.70;99.00;;;;;;4910537;29;20036;-79
2021/03/08 11:19:15;;;;;;;2.08;0.70;;;13.00;95.10;;;;;;4919130;29;20119;-75
2021/03/08 11:21:41;;;;;;;0.57;0.40;;;13.20;93.20;;;;;;4924666;29;20068;-75
2021/03/08 11:24:20;;;;;;;0.60;0.22;;;13.50;97.90;;;;;;4915208;29;20031;-76
2021/03/08 11:27:11;;;;;;;1.10;0.50;;;13.60;83.40;;;;;;4908744;29;20067;-77
2021/03/08 11:29:39;;;;;;;0.82;0.30;;;13.60;83.60;;;;;;4908087;29;20485;-74
2021/03/08 11:32:05;;;;;;;1.77;0.60;;;13.60;88.80;;;;;;4907769;29;20056;-78
2021/03/08 11:34:44;;;;;;;0.38;0.38;;;13.50;83.80;;;;;;4930768;29;20105;-78
2021/03/08 11:37:17;;;;;;;0.68;0.40;;;13.60;81.60;;;;;;4945618;28;20044;-75
2021/03/08 11:39:48;;;;;;;0.52;0.30;;;13.70;82.90;;;;;;4946486;29;20027;-76
2021/03/08 11:42:15;;;;;;;2.05;0.55;;;13.90;84.60;;;;;;4946541;29;20059;-76
2021/03/08 11:44:41;;;;;;;2.05;0.93;;;14.30;82.60;;;;;;4946367;28;20023;-75
2021/03/08 11:47:06;;;;;;;1.27;0.55;;;14.30;76.60;;;;;;4944944;28;20099;-77
2021/03/08 11:49:33;;;;;;;0.45;0.35;;;14.40;81.30;;;;;;4946418;28;20028;-78
2021/03/08 11:51:59;;;;;;;2.03;0.80;;;14.40;75.80;;;;;;4945221;29;20386;-77
2021/03/08 11:54:25;;;;;;;1.58;0.80;;;14.50;79.20;;;;;;4948909;29;20091;-79
2021/03/08 11:56:51;;;;;;;1.50;0.68;;;14.50;72.00;;;;;;4947765;28;20541;-76
2021/03/08 11:59:18;;;;;;;0.60;0.55;;;14.50;68.90;;;;;;4948718;28;20028;-76
2021/03/08 12:01:44;;;;;;;1.30;0.45;;;14.50;71.60;;;;;;4948075;28;20440;-75
2021/03/08 12:04:09;;;;;;;0.10;0.10;;;14.40;69.10;;;;;;4947268;29;20052;-77
2021/03/08 12:06:35;;;;;;;1.17;0.25;;;14.40;66.00;;;;;;4947292;28;20047;-77
2021/03/08 12:09:01;;;;;;;0.35;0.20;;;14.70;70.00;;;;;;4947072;29;20039;-77
2021/03/08 12:11:27;;;;;;;0.20;0.13;;;14.80;64.00;;;;;;4947428;28;20038;-79
2021/03/08 12:13:52;;;;;;;0.68;0.10;;;14.80;60.10;;;;;;4947642;28;20103;-79
2021/03/08 12:16:18;;;;;;;1.92;0.57;;;15.00;64.60;;;;;;4947373;28;20023;-79
2021/03/08 12:18:44;;;;;;;0.17;0.10;;;15.20;62.10;;;;;;4947671;28;20050;-80
2021/03/08 12:21:10;;;;;;;1.10;0.43;;;15.20;59.10;;;;;;4948211;28;20430;-79
2021/03/08 12:23:35;;;;;;;0.00;0.00;;;14.90;60.20;;;;;;4949067;29;20087;-77
2021/03/08 12:26:01;;;;;;;0.25;0.20;;;14.70;51.50;;;;;;4948195;29;20028;-77
2021/03/08 12:28:27;;;;;;;0.13;0.10;;;14.50;54.50;;;;;;4947111;28;20024;-78
2021/03/08 12:30:53;;;;;;;0.43;0.30;;;14.40;56.60;;;;;;4947476;28;20087;-75
2021/03/08 12:33:19;;;;;;;0.55;0.30;;;14.30;56.80;;;;;;4949447;28;20039;-78
2021/03/08 12:35:44;;;;;;;0.88;0.63;;;14.30;58.40;;;;;;4947929;28;20091;-79
2021/03/08 12:38:10;;;;;;;1.13;0.43;;;14.40;57.10;;;;;;4949361;28;20031;-77
2021/03/08 12:40:36;;;;;;;3.50;0.50;;;14.30;55.80;;;;;;4949217;29;20087;-78
2021/03/08 12:43:02;;;;;;;0.70;0.28;;;14.40;57.00;;;;;;4947672;28;20044;-76
2021/03/08 12:45:28;;;;;;;1.73;0.50;;;14.50;55.20;;;;;;4947929;28;20086;-79
2021/03/08 12:47:54;;;;;;;0.47;0.35;;;14.40;54.50;;;;;;4948147;29;20031;-79
2021/03/08 12:50:20;;;;;;;0.30;0.20;;;14.40;54.00;;;;;;4947717;28;20036;-78
2021/03/08 12:52:45;;;;;;;0.32;0.28;;;14.60;56.50;;;;;;4949047;29;20043;-79
2021/03/08 12:55:11;;;;;;;2.10;0.30;;;15.00;56.10;;;;;;4948879;29;20110;-78
2021/03/08 12:57:37;;;;;;;3.80;0.50;;;15.20;54.20;;;;;;4948653;29;20036;-78
2021/03/08 13:00:06;;;;;;;1.33;0.45;;;15.50;56.30;;;;;;4947521;28;20032;-76
2021/03/08 13:02:31;;;;;;;1.92;0.57;;;15.80;56.00;;;;;;4948508;29;20052;-75
2021/03/08 13:04:57;;;;;;;0.90;0.20;;;15.80;52.90;;;;;;4948168;28;20034;-78
2021/03/08 13:07:23;;;;;;;2.28;0.57;;;15.70;55.10;;;;;;4948848;29;20477;-76